sensor_id;sensor_type;location;lat;lon;timestamp;P1;durP1;ratioP1;P2;durP2;ratioP2
76259;SDS011;65076;52.362;6.588;2024-03-22T00:02:15;25.77;;;14.38;;
76259;SDS011;65076;52.362;6.588;2024-03-22T00:04:41;29.00;;;16.38;;
76259;SDS011;65076;52.362;6.588;2024-03-22T00:07:07;32.17;;;15.95;;
76259;SDS011;65076;52.362;6.588;2024-03-22T00:09:33;35.13;;;16.83;;
76259;SDS011;65076;52.362;6.588;2024-03-22T00:11:59;33.58;;;17.77;;
76259;SDS011;65076;52.362;6.588;2024-03-22T00:14:28;36.63;;;18.38;;
76259;SDS011;65076;52.362;6.588;2024-03-22T00:16:54;33.70;;;17.35;;
76259;SDS011;65076;52.362;6.588;2024-03-22T00:19:20;35.65;;;17.38;;
76259;SDS011;65076;52.362;6.588;2024-03-22T00:21:46;32.38;;;16.27;;
76259;SDS011;65076;52.362;6.588;2024-03-22T00:24:12;37.00;;;17.90;;
76259;SDS011;65076;52.362;6.588;2024-03-22T00:26:38;33.90;;;16.63;;
76259;SDS011;65076;52.362;6.588;2024-03-22T00:29:04;33.15;;;17.85;;
76259;SDS011;65076;52.362;6.588;2024-03-22T00:31:33;38.20;;;18.83;;
76259;SDS011;65076;52.362;6.588;2024-03-22T00:33:59;36.10;;;17.92;;
76259;SDS011;65076;52.362;6.588;2024-03-22T00:36:25;36.45;;;17.75;;
76259;SDS011;65076;52.362;6.588;2024-03-22T00:38:51;31.58;;;16.30;;
76259;SDS011;65076;52.362;6.588;2024-03-22T00:41:17;34.42;;;17.17;;
76259;SDS011;65076;52.362;6.588;2024-03-22T00:43:43;31.40;;;17.27;;
76259;SDS011;65076;52.362;6.588;2024-03-22T00:46:09;35.42;;;16.17;;
76259;SDS011;65076;52.362;6.588;2024-03-22T00:48:38;33.22;;;17.38;;
76259;SDS011;65076;52.362;6.588;2024-03-22T00:51:13;34.88;;;16.85;;
76259;SDS011;65076;52.362;6.588;2024-03-22T00:53:39;38.78;;;18.05;;
76259;SDS011;65076;52.362;6.588;2024-03-22T00:56:06;34.58;;;18.05;;
76259;SDS011;65076;52.362;6.588;2024-03-22T00:58:32;34.05;;;18.05;;
76259;SDS011;65076;52.362;6.588;2024-03-22T01:00:58;36.33;;;16.48;;
76259;SDS011;65076;52.362;6.588;2024-03-22T01:03:24;33.25;;;17.35;;
76259;SDS011;65076;52.362;6.588;2024-03-22T01:05:50;33.33;;;15.38;;
76259;SDS011;65076;52.362;6.588;2024-03-22T01:08:19;36.25;;;16.73;;
76259;SDS011;65076;52.362;6.588;2024-03-22T01:10:45;36.83;;;17.10;;
76259;SDS011;65076;52.362;6.588;2024-03-22T01:13:11;34.35;;;17.60;;
76259;SDS011;65076;52.362;6.588;2024-03-22T01:15:37;38.83;;;17.63;;
76259;SDS011;65076;52.362;6.588;2024-03-22T01:18:03;34.55;;;16.92;;
76259;SDS011;65076;52.362;6.588;2024-03-22T01:20:30;36.25;;;17.58;;
76259;SDS011;65076;52.362;6.588;2024-03-22T01:22:56;42.05;;;18.52;;
76259;SDS011;65076;52.362;6.588;2024-03-22T01:25:24;34.08;;;17.42;;
76259;SDS011;65076;52.362;6.588;2024-03-22T01:27:50;40.80;;;19.88;;
76259;SDS011;65076;52.362;6.588;2024-03-22T01:30:16;35.20;;;17.05;;
76259;SDS011;65076;52.362;6.588;2024-03-22T01:32:43;34.47;;;17.58;;
76259;SDS011;65076;52.362;6.588;2024-03-22T01:35:09;40.80;;;18.42;;
76259;SDS011;65076;52.362;6.588;2024-03-22T01:37:35;34.38;;;16.27;;
76259;SDS011;65076;52.362;6.588;2024-03-22T01:40:01;34.38;;;16.92;;
76259;SDS011;65076;52.362;6.588;2024-03-22T01:42:30;36.05;;;17.17;;
76259;SDS011;65076;52.362;6.588;2024-03-22T01:44:57;36.90;;;16.85;;
76259;SDS011;65076;52.362;6.588;2024-03-22T01:47:23;36.25;;;18.35;;
76259;SDS011;65076;52.362;6.588;2024-03-22T01:49:50;38.10;;;18.15;;
76259;SDS011;65076;52.362;6.588;2024-03-22T01:52:20;36.20;;;17.30;;
76259;SDS011;65076;52.362;6.588;2024-03-22T01:54:46;37.70;;;18.17;;
76259;SDS011;65076;52.362;6.588;2024-03-22T01:57:12;37.85;;;19.77;;
76259;SDS011;65076;52.362;6.588;2024-03-22T01:59:41;36.20;;;16.83;;
76259;SDS011;65076;52.362;6.588;2024-03-22T02:02:08;38.55;;;16.80;;
76259;SDS011;65076;52.362;6.588;2024-03-22T02:04:35;35.90;;;16.92;;
76259;SDS011;65076;52.362;6.588;2024-03-22T02:07:01;37.20;;;17.75;;
76259;SDS011;65076;52.362;6.588;2024-03-22T02:09:28;35.00;;;15.70;;
76259;SDS011;65076;52.362;6.588;2024-03-22T02:11:54;34.58;;;15.63;;
76259;SDS011;65076;52.362;6.588;2024-03-22T02:14:20;38.38;;;17.55;;
76259;SDS011;65076;52.362;6.588;2024-03-22T02:16:49;41.47;;;18.35;;
76259;SDS011;65076;52.362;6.588;2024-03-22T02:19:15;39.67;;;17.85;;
76259;SDS011;65076;52.362;6.588;2024-03-22T02:21:41;37.78;;;18.88;;
76259;SDS011;65076;52.362;6.588;2024-03-22T02:24:16;41.78;;;18.65;;
76259;SDS011;65076;52.362;6.588;2024-03-22T02:26:42;40.15;;;18.23;;
76259;SDS011;65076;52.362;6.588;2024-03-22T02:29:08;42.38;;;18.08;;
76259;SDS011;65076;52.362;6.588;2024-03-22T02:31:34;33.17;;;16.08;;
76259;SDS011;65076;52.362;6.588;2024-03-22T02:34:00;39.03;;;18.60;;
76259;SDS011;65076;52.362;6.588;2024-03-22T02:36:26;34.97;;;16.20;;
76259;SDS011;65076;52.362;6.588;2024-03-22T02:38:53;41.55;;;19.02;;
76259;SDS011;65076;52.362;6.588;2024-03-22T02:41:22;37.78;;;18.20;;
76259;SDS011;65076;52.362;6.588;2024-03-22T02:43:48;38.60;;;19.13;;
76259;SDS011;65076;52.362;6.588;2024-03-22T02:46:14;37.33;;;19.10;;
76259;SDS011;65076;52.362;6.588;2024-03-22T02:48:40;37.58;;;17.98;;
76259;SDS011;65076;52.362;6.588;2024-03-22T02:51:06;36.33;;;15.75;;
76259;SDS011;65076;52.362;6.588;2024-03-22T02:53:32;34.78;;;16.50;;
76259;SDS011;65076;52.362;6.588;2024-03-22T02:55:59;39.55;;;18.80;;
76259;SDS011;65076;52.362;6.588;2024-03-22T02:58:28;34.65;;;17.52;;
76259;SDS011;65076;52.362;6.588;2024-03-22T03:00:54;34.70;;;16.45;;
76259;SDS011;65076;52.362;6.588;2024-03-22T03:03:20;32.65;;;17.20;;
76259;SDS011;65076;52.362;6.588;2024-03-22T03:05:46;40.03;;;18.27;;
76259;SDS011;65076;52.362;6.588;2024-03-22T03:08:12;37.80;;;17.52;;
76259;SDS011;65076;52.362;6.588;2024-03-22T03:10:38;36.28;;;17.00;;
76259;SDS011;65076;52.362;6.588;2024-03-22T03:13:04;36.80;;;19.58;;
76259;SDS011;65076;52.362;6.588;2024-03-22T03:15:33;37.70;;;18.02;;
76259;SDS011;65076;52.362;6.588;2024-03-22T03:17:59;36.53;;;18.88;;
76259;SDS011;65076;52.362;6.588;2024-03-22T03:20:25;43.78;;;18.35;;
76259;SDS011;65076;52.362;6.588;2024-03-22T03:22:51;36.97;;;19.23;;
76259;SDS011;65076;52.362;6.588;2024-03-22T03:25:17;36.58;;;18.00;;
76259;SDS011;65076;52.362;6.588;2024-03-22T03:27:43;38.22;;;18.33;;
76259;SDS011;65076;52.362;6.588;2024-03-22T03:30:09;37.08;;;19.70;;
76259;SDS011;65076;52.362;6.588;2024-03-22T03:32:39;34.92;;;16.95;;
76259;SDS011;65076;52.362;6.588;2024-03-22T03:35:05;40.78;;;19.85;;
76259;SDS011;65076;52.362;6.588;2024-03-22T03:37:32;36.72;;;17.25;;
76259;SDS011;65076;52.362;6.588;2024-03-22T03:39:58;41.88;;;19.83;;
76259;SDS011;65076;52.362;6.588;2024-03-22T03:42:24;39.20;;;18.70;;
76259;SDS011;65076;52.362;6.588;2024-03-22T03:44:50;39.60;;;18.70;;
76259;SDS011;65076;52.362;6.588;2024-03-22T03:47:16;41.83;;;19.25;;
76259;SDS011;65076;52.362;6.588;2024-03-22T03:49:45;38.85;;;18.33;;
76259;SDS011;65076;52.362;6.588;2024-03-22T03:52:11;42.90;;;19.48;;
76259;SDS011;65076;52.362;6.588;2024-03-22T03:54:37;39.67;;;18.55;;
76259;SDS011;65076;52.362;6.588;2024-03-22T03:57:03;42.00;;;19.42;;
76259;SDS011;65076;52.362;6.588;2024-03-22T04:01:58;45.25;;;18.75;;
76259;SDS011;65076;52.362;6.588;2024-03-22T04:04:24;32.28;;;17.10;;
76259;SDS011;65076;52.362;6.588;2024-03-22T04:06:53;39.90;;;18.02;;
76259;SDS011;65076;52.362;6.588;2024-03-22T04:11:47;40.88;;;18.95;;
76259;SDS011;65076;52.362;6.588;2024-03-22T04:14:13;42.60;;;19.85;;
76259;SDS011;65076;52.362;6.588;2024-03-22T04:16:39;38.45;;;18.90;;
76259;SDS011;65076;52.362;6.588;2024-03-22T04:19:05;38.00;;;18.20;;
76259;SDS011;65076;52.362;6.588;2024-03-22T04:21:31;39.28;;;18.77;;
76259;SDS011;65076;52.362;6.588;2024-03-22T04:24:00;32.60;;;16.20;;
76259;SDS011;65076;52.362;6.588;2024-03-22T04:26:26;38.55;;;18.52;;
76259;SDS011;65076;52.362;6.588;2024-03-22T04:28:52;34.17;;;17.00;;
76259;SDS011;65076;52.362;6.588;2024-03-22T04:31:18;36.20;;;18.58;;
76259;SDS011;65076;52.362;6.588;2024-03-22T04:33:44;34.35;;;16.17;;
76259;SDS011;65076;52.362;6.588;2024-03-22T04:36:10;30.50;;;14.90;;
76259;SDS011;65076;52.362;6.588;2024-03-22T04:38:36;32.28;;;14.35;;
76259;SDS011;65076;52.362;6.588;2024-03-22T04:41:05;38.60;;;20.65;;
76259;SDS011;65076;52.362;6.588;2024-03-22T04:43:31;29.98;;;15.48;;
76259;SDS011;65076;52.362;6.588;2024-03-22T04:45:57;34.00;;;17.73;;
76259;SDS011;65076;52.362;6.588;2024-03-22T04:48:23;39.22;;;19.85;;
76259;SDS011;65076;52.362;6.588;2024-03-22T04:50:49;37.22;;;17.42;;
76259;SDS011;65076;52.362;6.588;2024-03-22T04:53:18;34.75;;;18.42;;
76259;SDS011;65076;52.362;6.588;2024-03-22T04:55:46;39.47;;;18.10;;
76259;SDS011;65076;52.362;6.588;2024-03-22T04:58:16;30.65;;;14.25;;
76259;SDS011;65076;52.362;6.588;2024-03-22T05:00:44;37.65;;;18.27;;
76259;SDS011;65076;52.362;6.588;2024-03-22T05:03:10;40.53;;;19.23;;
76259;SDS011;65076;52.362;6.588;2024-03-22T05:05:38;36.00;;;18.80;;
76259;SDS011;65076;52.362;6.588;2024-03-22T05:08:06;33.88;;;17.17;;
76259;SDS011;65076;52.362;6.588;2024-03-22T05:25:29;40.35;;;20.45;;
76259;SDS011;65076;52.362;6.588;2024-03-22T05:27:55;34.75;;;17.55;;
76259;SDS011;65076;52.362;6.588;2024-03-22T05:30:21;39.53;;;18.67;;
76259;SDS011;65076;52.362;6.588;2024-03-22T05:35:15;29.00;;;15.30;;
76259;SDS011;65076;52.362;6.588;2024-03-22T05:37:41;40.97;;;19.67;;
76259;SDS011;65076;52.362;6.588;2024-03-22T05:40:08;37.95;;;19.52;;
76259;SDS011;65076;52.362;6.588;2024-03-22T05:42:38;38.67;;;19.30;;
76259;SDS011;65076;52.362;6.588;2024-03-22T05:45:05;41.47;;;17.88;;
76259;SDS011;65076;52.362;6.588;2024-03-22T05:47:32;36.72;;;19.58;;
76259;SDS011;65076;52.362;6.588;2024-03-22T05:49:58;35.67;;;18.65;;
76259;SDS011;65076;52.362;6.588;2024-03-22T05:52:24;30.45;;;14.55;;
76259;SDS011;65076;52.362;6.588;2024-03-22T05:54:50;37.88;;;18.85;;
76259;SDS011;65076;52.362;6.588;2024-03-22T05:57:16;37.80;;;19.80;;
76259;SDS011;65076;52.362;6.588;2024-03-22T05:59:45;37.15;;;18.48;;
76259;SDS011;65076;52.362;6.588;2024-03-22T06:02:11;31.90;;;16.98;;
76259;SDS011;65076;52.362;6.588;2024-03-22T06:07:05;33.25;;;15.68;;
76259;SDS011;65076;52.362;6.588;2024-03-22T06:09:32;30.52;;;16.00;;
76259;SDS011;65076;52.362;6.588;2024-03-22T06:12:02;24.30;;;12.05;;
76259;SDS011;65076;52.362;6.588;2024-03-22T06:14:30;31.85;;;16.05;;
76259;SDS011;65076;52.362;6.588;2024-03-22T06:27:15;36.45;;;17.30;;
76259;SDS011;65076;52.362;6.588;2024-03-22T06:44:37;28.80;;;15.43;;
76259;SDS011;65076;52.362;6.588;2024-03-22T06:51:59;33.72;;;17.08;;
76259;SDS011;65076;52.362;6.588;2024-03-22T06:54:25;31.58;;;15.23;;
76259;SDS011;65076;52.362;6.588;2024-03-22T06:56:51;29.90;;;13.75;;
76259;SDS011;65076;52.362;6.588;2024-03-22T07:01:48;29.00;;;15.55;;
76259;SDS011;65076;52.362;6.588;2024-03-22T07:14:40;32.22;;;16.95;;
76259;SDS011;65076;52.362;6.588;2024-03-22T07:27:02;28.60;;;12.85;;
76259;SDS011;65076;52.362;6.588;2024-03-22T07:44:26;29.58;;;15.18;;
76259;SDS011;65076;52.362;6.588;2024-03-22T07:51:54;21.08;;;10.25;;
76259;SDS011;65076;52.362;6.588;2024-03-22T07:54:20;26.48;;;13.68;;
76259;SDS011;65076;52.362;6.588;2024-03-22T07:56:46;34.47;;;16.52;;
76259;SDS011;65076;52.362;6.588;2024-03-22T08:04:16;32.00;;;14.35;;
76259;SDS011;65076;52.362;6.588;2024-03-22T08:14:09;25.13;;;13.75;;
76259;SDS011;65076;52.362;6.588;2024-03-22T08:16:37;28.40;;;15.15;;
76259;SDS011;65076;52.362;6.588;2024-03-22T08:21:34;33.13;;;16.35;;
76259;SDS011;65076;52.362;6.588;2024-03-22T08:39:04;31.95;;;15.02;;
76259;SDS011;65076;52.362;6.588;2024-03-22T08:44:00;24.70;;;12.88;;
76259;SDS011;65076;52.362;6.588;2024-03-22T08:46:27;24.85;;;12.95;;
76259;SDS011;65076;52.362;6.588;2024-03-22T09:01:21;24.48;;;10.90;;
76259;SDS011;65076;52.362;6.588;2024-03-22T09:11:12;25.90;;;11.20;;
76259;SDS011;65076;52.362;6.588;2024-03-22T09:26:04;18.73;;;10.02;;
76259;SDS011;65076;52.362;6.588;2024-03-22T09:53:18;20.33;;;11.23;;
76259;SDS011;65076;52.362;6.588;2024-03-22T10:00:41;22.85;;;10.80;;
76259;SDS011;65076;52.362;6.588;2024-03-22T10:10:34;16.23;;;9.80;;
76259;SDS011;65076;52.362;6.588;2024-03-22T10:13:00;20.15;;;10.25;;
76259;SDS011;65076;52.362;6.588;2024-03-22T10:43:01;17.77;;;10.07;;
76259;SDS011;65076;52.362;6.588;2024-03-22T10:50:33;19.67;;;9.18;;
76259;SDS011;65076;52.362;6.588;2024-03-22T11:08:03;11.20;;;7.95;;
76259;SDS011;65076;52.362;6.588;2024-03-22T11:40:17;11.10;;;8.50;;
76259;SDS011;65076;52.362;6.588;2024-03-22T11:42:44;11.02;;;6.50;;
76259;SDS011;65076;52.362;6.588;2024-03-22T11:57:47;8.98;;;5.65;;
76259;SDS011;65076;52.362;6.588;2024-03-22T12:05:17;5.25;;;3.80;;
76259;SDS011;65076;52.362;6.588;2024-03-22T12:30:03;5.03;;;3.25;;
76259;SDS011;65076;52.362;6.588;2024-03-22T12:32:31;4.97;;;3.30;;
76259;SDS011;65076;52.362;6.588;2024-03-22T12:34:57;6.63;;;4.07;;
76259;SDS011;65076;52.362;6.588;2024-03-22T12:37:24;4.63;;;3.25;;
76259;SDS011;65076;52.362;6.588;2024-03-22T12:39:50;4.72;;;3.30;;
76259;SDS011;65076;52.362;6.588;2024-03-22T12:42:16;7.40;;;4.50;;
76259;SDS011;65076;52.362;6.588;2024-03-22T12:52:08;9.23;;;5.13;;
76259;SDS011;65076;52.362;6.588;2024-03-22T13:04:31;3.70;;;2.75;;
76259;SDS011;65076;52.362;6.588;2024-03-22T13:49:04;1.60;;;1.30;;
76259;SDS011;65076;52.362;6.588;2024-03-22T13:51:53;2.08;;;1.35;;
76259;SDS011;65076;52.362;6.588;2024-03-22T14:01:47;4.07;;;1.83;;
76259;SDS011;65076;52.362;6.588;2024-03-22T14:06:43;3.03;;;2.05;;
76259;SDS011;65076;52.362;6.588;2024-03-22T14:11:47;2.88;;;1.95;;
76259;SDS011;65076;52.362;6.588;2024-03-22T14:21:39;2.13;;;1.50;;
76259;SDS011;65076;52.362;6.588;2024-03-22T14:29:04;3.60;;;2.20;;
76259;SDS011;65076;52.362;6.588;2024-03-22T14:31:30;3.72;;;2.42;;
76259;SDS011;65076;52.362;6.588;2024-03-22T14:33:56;5.22;;;2.90;;
76259;SDS011;65076;52.362;6.588;2024-03-22T14:36:22;5.32;;;3.42;;
76259;SDS011;65076;52.362;6.588;2024-03-22T14:43:43;6.07;;;4.20;;
76259;SDS011;65076;52.362;6.588;2024-03-22T14:46:12;6.18;;;3.90;;
76259;SDS011;65076;52.362;6.588;2024-03-22T14:48:38;6.63;;;3.80;;
76259;SDS011;65076;52.362;6.588;2024-03-22T14:53:32;6.47;;;4.00;;
76259;SDS011;65076;52.362;6.588;2024-03-22T15:20:39;9.55;;;5.72;;
76259;SDS011;65076;52.362;6.588;2024-03-22T15:23:05;11.70;;;5.53;;
76259;SDS011;65076;52.362;6.588;2024-03-22T15:25:31;9.45;;;5.50;;
76259;SDS011;65076;52.362;6.588;2024-03-22T15:27:57;8.75;;;5.72;;
76259;SDS011;65076;52.362;6.588;2024-03-22T15:30:23;8.77;;;4.57;;
76259;SDS011;65076;52.362;6.588;2024-03-22T15:32:49;9.60;;;5.80;;
76259;SDS011;65076;52.362;6.588;2024-03-22T15:40:16;11.88;;;4.75;;
76259;SDS011;65076;52.362;6.588;2024-03-22T15:47:39;8.45;;;4.97;;
76259;SDS011;65076;52.362;6.588;2024-03-22T16:00:01;11.48;;;5.15;;
76259;SDS011;65076;52.362;6.588;2024-03-22T16:02:28;11.65;;;4.53;;
76259;SDS011;65076;52.362;6.588;2024-03-22T16:04:54;9.60;;;4.63;;
76259;SDS011;65076;52.362;6.588;2024-03-22T16:09:49;12.13;;;4.30;;
76259;SDS011;65076;52.362;6.588;2024-03-22T16:12:15;14.15;;;5.72;;
76259;SDS011;65076;52.362;6.588;2024-03-22T16:14:41;10.02;;;3.95;;
76259;SDS011;65076;52.362;6.588;2024-03-22T16:17:10;9.32;;;4.10;;
76259;SDS011;65076;52.362;6.588;2024-03-22T16:19:36;10.38;;;4.10;;
76259;SDS011;65076;52.362;6.588;2024-03-22T16:22:02;12.68;;;4.78;;
76259;SDS011;65076;52.362;6.588;2024-03-22T16:24:29;9.90;;;4.25;;
76259;SDS011;65076;52.362;6.588;2024-03-22T16:26:55;12.40;;;4.10;;
76259;SDS011;65076;52.362;6.588;2024-03-22T16:29:21;13.77;;;5.35;;
76259;SDS011;65076;52.362;6.588;2024-03-22T16:31:48;11.18;;;4.30;;
76259;SDS011;65076;52.362;6.588;2024-03-22T16:34:17;9.50;;;4.90;;
76259;SDS011;65076;52.362;6.588;2024-03-22T16:36:43;11.30;;;4.95;;
76259;SDS011;65076;52.362;6.588;2024-03-22T16:39:09;10.90;;;4.80;;
76259;SDS011;65076;52.362;6.588;2024-03-22T16:41:35;11.90;;;4.72;;
76259;SDS011;65076;52.362;6.588;2024-03-22T16:46:29;12.18;;;5.15;;
76259;SDS011;65076;52.362;6.588;2024-03-22T16:48:56;9.55;;;4.70;;
76259;SDS011;65076;52.362;6.588;2024-03-22T16:51:25;10.50;;;4.30;;
76259;SDS011;65076;52.362;6.588;2024-03-22T16:53:51;9.20;;;3.47;;
76259;SDS011;65076;52.362;6.588;2024-03-22T16:56:17;8.50;;;3.50;;
76259;SDS011;65076;52.362;6.588;2024-03-22T16:58:43;9.73;;;2.30;;
76259;SDS011;65076;52.362;6.588;2024-03-22T17:01:09;7.32;;;2.83;;
76259;SDS011;65076;52.362;6.588;2024-03-22T17:03:35;10.23;;;3.20;;
76259;SDS011;65076;52.362;6.588;2024-03-22T17:06:01;13.20;;;2.95;;
76259;SDS011;65076;52.362;6.588;2024-03-22T17:08:36;13.15;;;2.88;;
76259;SDS011;65076;52.362;6.588;2024-03-22T17:11:03;8.23;;;3.00;;
76259;SDS011;65076;52.362;6.588;2024-03-22T17:13:29;9.52;;;1.98;;
76259;SDS011;65076;52.362;6.588;2024-03-22T17:15:55;10.18;;;2.20;;
76259;SDS011;65076;52.362;6.588;2024-03-22T17:18:21;13.65;;;3.08;;
76259;SDS011;65076;52.362;6.588;2024-03-22T17:20:48;12.25;;;3.13;;
76259;SDS011;65076;52.362;6.588;2024-03-22T17:23:14;9.90;;;2.22;;
76259;SDS011;65076;52.362;6.588;2024-03-22T17:25:43;9.90;;;2.22;;
76259;SDS011;65076;52.362;6.588;2024-03-22T17:28:09;7.38;;;2.20;;
76259;SDS011;65076;52.362;6.588;2024-03-22T17:33:03;10.25;;;2.42;;
76259;SDS011;65076;52.362;6.588;2024-03-22T17:35:30;8.25;;;2.05;;
76259;SDS011;65076;52.362;6.588;2024-03-22T17:37:56;9.48;;;2.60;;
76259;SDS011;65076;52.362;6.588;2024-03-22T17:40:22;11.90;;;3.03;;
76259;SDS011;65076;52.362;6.588;2024-03-22T17:42:51;10.13;;;2.50;;
76259;SDS011;65076;52.362;6.588;2024-03-22T17:45:17;7.20;;;2.50;;
76259;SDS011;65076;52.362;6.588;2024-03-22T17:47:45;11.23;;;2.38;;
76259;SDS011;65076;52.362;6.588;2024-03-22T17:50:11;20.08;;;3.70;;
76259;SDS011;65076;52.362;6.588;2024-03-22T17:52:37;11.55;;;3.47;;
76259;SDS011;65076;52.362;6.588;2024-03-22T17:55:06;13.38;;;3.75;;
76259;SDS011;65076;52.362;6.588;2024-03-22T17:57:32;10.63;;;2.83;;
76259;SDS011;65076;52.362;6.588;2024-03-22T18:00:01;11.80;;;3.05;;
76259;SDS011;65076;52.362;6.588;2024-03-22T18:02:28;9.15;;;3.08;;
76259;SDS011;65076;52.362;6.588;2024-03-22T18:04:54;9.50;;;2.95;;
76259;SDS011;65076;52.362;6.588;2024-03-22T18:07:20;7.70;;;2.75;;
76259;SDS011;65076;52.362;6.588;2024-03-22T18:09:46;12.05;;;5.10;;
76259;SDS011;65076;52.362;6.588;2024-03-22T18:14:40;15.40;;;6.10;;
76259;SDS011;65076;52.362;6.588;2024-03-22T18:17:09;14.23;;;6.43;;
76259;SDS011;65076;52.362;6.588;2024-03-22T18:19:35;9.73;;;3.63;;
76259;SDS011;65076;52.362;6.588;2024-03-22T18:22:01;7.88;;;3.90;;
76259;SDS011;65076;52.362;6.588;2024-03-22T18:24:28;11.75;;;3.80;;
76259;SDS011;65076;52.362;6.588;2024-03-22T18:26:54;10.77;;;3.40;;
76259;SDS011;65076;52.362;6.588;2024-03-22T18:29:20;10.88;;;4.15;;
76259;SDS011;65076;52.362;6.588;2024-03-22T18:31:46;17.40;;;5.50;;
76259;SDS011;65076;52.362;6.588;2024-03-22T18:34:15;18.40;;;5.35;;
76259;SDS011;65076;52.362;6.588;2024-03-22T18:36:41;13.40;;;4.15;;
76259;SDS011;65076;52.362;6.588;2024-03-22T18:39:07;11.82;;;4.28;;
76259;SDS011;65076;52.362;6.588;2024-03-22T18:41:33;21.23;;;7.43;;
76259;SDS011;65076;52.362;6.588;2024-03-22T18:44:00;12.23;;;4.82;;
76259;SDS011;65076;52.362;6.588;2024-03-22T18:46:26;16.67;;;4.32;;
76259;SDS011;65076;52.362;6.588;2024-03-22T18:48:52;21.23;;;7.32;;
76259;SDS011;65076;52.362;6.588;2024-03-22T18:53:48;13.05;;;4.13;;
76259;SDS011;65076;52.362;6.588;2024-03-22T18:56:15;11.95;;;3.28;;
76259;SDS011;65076;52.362;6.588;2024-03-22T18:58:41;8.30;;;2.83;;
76259;SDS011;65076;52.362;6.588;2024-03-22T19:01:08;14.55;;;3.53;;
76259;SDS011;65076;52.362;6.588;2024-03-22T19:03:34;10.77;;;3.20;;
76259;SDS011;65076;52.362;6.588;2024-03-22T19:06:00;10.75;;;4.05;;
76259;SDS011;65076;52.362;6.588;2024-03-22T19:08:26;11.00;;;3.40;;
76259;SDS011;65076;52.362;6.588;2024-03-22T19:10:55;12.10;;;3.60;;
76259;SDS011;65076;52.362;6.588;2024-03-22T19:13:21;10.90;;;4.07;;
76259;SDS011;65076;52.362;6.588;2024-03-22T19:15:52;11.77;;;3.20;;
76259;SDS011;65076;52.362;6.588;2024-03-22T19:18:19;9.48;;;3.08;;
76259;SDS011;65076;52.362;6.588;2024-03-22T19:20:45;26.17;;;9.93;;
76259;SDS011;65076;52.362;6.588;2024-03-22T19:23:11;21.15;;;8.43;;
76259;SDS011;65076;52.362;6.588;2024-03-22T19:25:37;15.85;;;4.65;;
76259;SDS011;65076;52.362;6.588;2024-03-22T19:28:05;13.95;;;4.45;;
76259;SDS011;65076;52.362;6.588;2024-03-22T19:30:32;11.88;;;4.10;;
76259;SDS011;65076;52.362;6.588;2024-03-22T19:33:00;14.82;;;4.13;;
76259;SDS011;65076;52.362;6.588;2024-03-22T19:35:26;17.92;;;7.03;;
76259;SDS011;65076;52.362;6.588;2024-03-22T19:37:52;13.77;;;4.35;;
76259;SDS011;65076;52.362;6.588;2024-03-22T19:40:18;16.95;;;4.30;;
76259;SDS011;65076;52.362;6.588;2024-03-22T19:45:15;19.77;;;6.03;;
76259;SDS011;65076;52.362;6.588;2024-03-22T19:47:44;20.25;;;5.82;;
76259;SDS011;65076;52.362;6.588;2024-03-22T19:50:10;17.23;;;5.28;;
76259;SDS011;65076;52.362;6.588;2024-03-22T19:52:36;14.98;;;4.53;;
76259;SDS011;65076;52.362;6.588;2024-03-22T19:57:30;14.90;;;4.30;;
76259;SDS011;65076;52.362;6.588;2024-03-22T19:59:56;10.40;;;4.45;;
76259;SDS011;65076;52.362;6.588;2024-03-22T20:02:25;12.98;;;3.47;;
76259;SDS011;65076;52.362;6.588;2024-03-22T20:04:51;11.85;;;3.70;;
76259;SDS011;65076;52.362;6.588;2024-03-22T20:07:17;12.70;;;3.42;;
76259;SDS011;65076;52.362;6.588;2024-03-22T20:09:43;15.73;;;4.88;;
76259;SDS011;65076;52.362;6.588;2024-03-22T20:12:09;15.63;;;4.57;;
76259;SDS011;65076;52.362;6.588;2024-03-22T20:14:35;9.45;;;3.35;;
76259;SDS011;65076;52.362;6.588;2024-03-22T20:17:01;12.38;;;4.18;;
76259;SDS011;65076;52.362;6.588;2024-03-22T20:19:30;9.30;;;3.95;;
76259;SDS011;65076;52.362;6.588;2024-03-22T20:21:56;10.98;;;3.55;;
76259;SDS011;65076;52.362;6.588;2024-03-22T20:24:23;12.75;;;3.65;;
76259;SDS011;65076;52.362;6.588;2024-03-22T20:26:49;10.40;;;3.92;;
76259;SDS011;65076;52.362;6.588;2024-03-22T20:29:15;13.20;;;3.30;;
76259;SDS011;65076;52.362;6.588;2024-03-22T20:31:41;13.18;;;3.90;;
76259;SDS011;65076;52.362;6.588;2024-03-22T20:34:07;11.43;;;3.35;;
